| time (UTC) | temp C | wind direction | speed KPH | gust KPH | rain 1hr cm | rain 24hr cm | rain mn cm | humidity % | barometer mb |
| 20260906034912 | 17 | 300 | 11.3 | 0.0 | 0.00 | 0.00 | 0.00 | 77 | 1021.0 |
| 20260906033512 | 17 | 300 | 11.3 | 0.0 | 0.00 | 0.00 | 0.00 | 77 | 1021.0 |
| 20260906032013 | 17 | 290 | 12.9 | 0.0 | 0.00 | 0.00 | 0.00 | 73 | 1021.0 |
| 20260906030512 | 17 | 290 | 12.9 | 0.0 | 0.00 | 0.00 | 0.00 | 73 | 1021.0 |
| 20260906024918 | 17 | 280 | 11.3 | 0.0 | 0.00 | 0.00 | 0.00 | 73 | 1020.0 |
| 20260906023351 | 17 | 280 | 11.3 | 0.0 | 0.00 | 0.00 | 0.00 | 73 | 1020.0 |
| 20260906021857 | 17 | 280 | 12.9 | 0.0 | 0.00 | 0.00 | 0.00 | 78 | 1020.0 |
| 20260906020352 | 17 | 280 | 12.9 | 0.0 | 0.00 | 0.00 | 0.00 | 78 | 1020.0 |
| 20260906014852 | 17 | 290 | 22.5 | 0.0 | 0.00 | 0.00 | 0.00 | 73 | 1020.0 |
| 20260906013512 | 17 | 290 | 22.5 | 0.0 | 0.00 | 0.00 | 0.00 | 73 | 1020.0 |
| 20260906011850 | 17 | 260 | 9.7 | 0.0 | 0.00 | 0.00 | 0.00 | 73 | 1020.0 |
| 20260906010350 | 17 | 260 | 9.7 | 0.0 | 0.00 | 0.00 | 0.00 | 73 | 1020.0 |
| 20260906005012 | 17 | 280 | 11.3 | 0.0 | 0.00 | 0.00 | 0.00 | 73 | 1019.0 |
| 20260906003522 | 17 | 280 | 11.3 | 0.0 | 0.00 | 0.00 | 0.00 | 73 | 1019.0 |
| 20260906002013 | 17 | 290 | 12.9 | 0.0 | 0.00 | 0.00 | 0.00 | 78 | 1019.0 |
| 20260906000502 | 17 | 290 | 12.9 | 0.0 | 0.00 | 0.00 | 0.00 | 78 | |
| 20260905234901 | 17 | 4.8 | 0.0 | 0.00 | 0.00 | 0.00 | 83 | 1020.0 | |
| 20260905233350 | 17 | 4.8 | 0.0 | 0.00 | 0.00 | 0.00 | 83 | 1020.0 | |
| 20260905232014 | 18 | 310 | 8.0 | 0.0 | 0.00 | 0.00 | 0.00 | 73 | 1019.0 |
| 20260905230423 | 18 | 310 | 8.0 | 0.0 | 0.00 | 0.00 | 0.00 | 73 | 1019.0 |
| 20260905225013 | 18 | 10 | 8.0 | 0.0 | 0.00 | 0.00 | 0.00 | 68 | 1019.0 |
| 20260905223404 | 18 | 10 | 8.0 | 0.0 | 0.00 | 0.00 | 0.00 | 68 | 1019.0 |
| 20260905221957 | 18 | 3.2 | 0.0 | 0.00 | 0.00 | 0.00 | 73 | 1019.0 | |
| 20260905220512 | 18 | 3.2 | 0.0 | 0.00 | 0.00 | 0.00 | 73 | 1019.0 | |
| 20260905215011 | 18 | 350 | 4.8 | 0.0 | 0.00 | 0.00 | 0.00 | 68 | 1019.0 |
| 20260905213351 | 18 | 350 | 4.8 | 0.0 | 0.00 | 0.00 | 0.00 | 68 | 1019.0 |
| 20260905211847 | 21 | 4.8 | 0.0 | 0.00 | 0.00 | 0.00 | 60 | 1019.0 | |
| 20260905210350 | 21 | 4.8 | 0.0 | 0.00 | 0.00 | 0.00 | 60 | 1019.0 | |
| 20260905204901 | 21 | 1.6 | 0.0 | 0.00 | 0.00 | 0.00 | 60 | 1019.0 | |
| 20260905203350 | 21 | 1.6 | 0.0 | 0.00 | 0.00 | 0.00 | 60 | 1019.0 | |
| 20260905201850 | 22 | 90 | 4.8 | 0.0 | 0.00 | 0.00 | 0.00 | 57 | 1019.0 |
| 20260905200512 | 22 | 90 | 4.8 | 0.0 | 0.00 | 0.00 | 0.00 | 57 | 1019.0 |
| 20260905195005 | 22 | 3.2 | 0.0 | 0.00 | 0.00 | 0.00 | 53 | 1018.0 | |
| 20260905193351 | 22 | 3.2 | 0.0 | 0.00 | 0.00 | 0.00 | 53 | 1018.0 | |
| 20260905191920 | 22 | 300 | 14.5 | 0.0 | 0.00 | 0.00 | 0.00 | 53 | 1018.0 |
| 20260905190351 | 22 | 300 | 14.5 | 0.0 | 0.00 | 0.00 | 0.00 | 53 | 1018.0 |
| 20260905184848 | 23 | 300 | 22.5 | 0.0 | 0.00 | 0.00 | 0.00 | 50 | 1018.0 |
| 20260905183356 | 23 | 300 | 22.5 | 0.0 | 0.00 | 0.00 | 0.00 | 50 | 1018.0 |
| 20260905181847 | 23 | 310 | 14.5 | 0.0 | 0.00 | 0.00 | 0.00 | 54 | 1017.0 |
| 20260905180347 | 23 | 310 | 14.5 | 0.0 | 0.00 | 0.00 | 0.00 | 54 | 1017.0 |
| 20260905174844 | 26 | 270 | 12.9 | 0.0 | 0.00 | 0.00 | 0.00 | 42 | 1017.0 |
| 20260905173350 | 26 | 270 | 12.9 | 0.0 | 0.00 | 0.00 | 0.00 | 42 | 1017.0 |
| 20260905171852 | 26 | 230 | 16.1 | 0.0 | 0.00 | 0.00 | 0.00 | 48 | 1016.0 |
| 20260905170351 | 26 | 230 | 16.1 | 0.0 | 0.00 | 0.00 | 0.00 | 48 | 1016.0 |
| 20260905164851 | 28 | 240 | 11.3 | 0.0 | 0.00 | 0.00 | 0.00 | 33 | 1016.0 |
| 20260905163352 | 28 | 240 | 11.3 | 0.0 | 0.00 | 0.00 | 0.00 | 33 | 1016.0 |
| 20260905161849 | 28 | 260 | 11.3 | 0.0 | 0.00 | 0.00 | 0.00 | 33 | 1015.0 |
| 20260905160351 | 28 | 260 | 11.3 | 0.0 | 0.00 | 0.00 | 0.00 | 33 | 1015.0 |
| 20260905154901 | 30 | 270 | 14.5 | 0.0 | 0.00 | 0.00 | 0.00 | 35 | 1015.0 |
| 20260905153350 | 30 | 270 | 14.5 | 0.0 | 0.00 | 0.00 | 0.00 | 35 | 1015.0 |
| 20260905151851 | 31 | 270 | 11.3 | 0.0 | 0.00 | 0.00 | 0.00 | 29 | 1015.0 |
| 20260905150351 | 31 | 270 | 11.3 | 0.0 | 0.00 | 0.00 | 0.00 | 29 | 1015.0 |
| 20260905144844 | 31 | 270 | 14.5 | 0.0 | 0.00 | 0.00 | 0.00 | 29 | 1015.0 |
| 20260905143350 | 31 | 270 | 14.5 | 0.0 | 0.00 | 0.00 | 0.00 | 29 | 1015.0 |
| 20260905141848 | 31 | 280 | 14.5 | 0.0 | 0.00 | 0.00 | 0.00 | 29 | 1015.0 |
| 20260905140347 | 31 | 280 | 14.5 | 0.0 | 0.00 | 0.00 | 0.00 | 29 | 1015.0 |
| 20260905135009 | 32 | 290 | 16.1 | 0.0 | 0.00 | 0.00 | 0.00 | 26 | 1016.0 |
| 20260905133351 | 32 | 290 | 16.1 | 0.0 | 0.00 | 0.00 | 0.00 | 26 | 1016.0 |
| 20260905131853 | 31 | 280 | 11.3 | 0.0 | 0.00 | 0.00 | 0.00 | 29 | 1016.0 |
| 20260905130412 | 31 | 280 | 11.3 | 0.0 | 0.00 | 0.00 | 0.00 | 29 | 1016.0 |
| 20260905124845 | 31 | 310 | 11.3 | 0.0 | 0.00 | 0.00 | 0.00 | 29 | 1016.0 |
| 20260905123351 | 31 | 310 | 11.3 | 0.0 | 0.00 | 0.00 | 0.00 | 29 | 1016.0 |
| 20260905121918 | 31 | 300 | 9.7 | 0.0 | 0.00 | 0.00 | 0.00 | 31 | 1016.0 |
| 20260905120351 | 31 | 300 | 9.7 | 0.0 | 0.00 | 0.00 | 0.00 | 31 | 1016.0 |
| 20260905114851 | 30 | 4.8 | 0.0 | 0.00 | 0.00 | 0.00 | 33 | 1017.0 | |
| 20260905113350 | 30 | 4.8 | 0.0 | 0.00 | 0.00 | 0.00 | 33 | 1017.0 | |
| 20260905111909 | 28 | 3.2 | 0.0 | 0.00 | 0.00 | 0.00 | 37 | 1017.0 | |
| 20260905110350 | 28 | 3.2 | 0.0 | 0.00 | 0.00 | 0.00 | 37 | 1017.0 | |
| 20260905104851 | 27 | 340 | 3.2 | 0.0 | 0.00 | 0.00 | 0.00 | 40 | 1017.0 |
| 20260905103351 | 27 | 340 | 3.2 | 0.0 | 0.00 | 0.00 | 0.00 | 40 | 1017.0 |
| 20260905101850 | 27 | 360 | 3.2 | 0.0 | 0.00 | 0.00 | 0.00 | 40 | 1018.0 |
| 20260905100351 | 27 | 360 | 3.2 | 0.0 | 0.00 | 0.00 | 0.00 | 40 | 1018.0 |
| 20260905095012 | 27 | 3.2 | 0.0 | 0.00 | 0.00 | 0.00 | 42 | 1018.0 | |
| 20260905093350 | 27 | 3.2 | 0.0 | 0.00 | 0.00 | 0.00 | 42 | 1018.0 | |
| 20260905091851 | 25 | 3.2 | 0.0 | 0.00 | 0.00 | 0.00 | 47 | 1018.0 | |
| 20260905090350 | 25 | 3.2 | 0.0 | 0.00 | 0.00 | 0.00 | 47 | 1018.0 | |
| 20260905084850 | 25 | 4.8 | 0.0 | 0.00 | 0.00 | 0.00 | 51 | 1018.0 | |
| 20260905083351 | 25 | 4.8 | 0.0 | 0.00 | 0.00 | 0.00 | 51 | 1018.0 | |
| 20260905081850 | 22 | 60 | 4.8 | 0.0 | 0.00 | 0.00 | 0.00 | 61 | 1018.0 |
| 20260905080351 | 22 | 60 | 4.8 | 0.0 | 0.00 | 0.00 | 0.00 | 61 | 1018.0 |
| 20260905074850 | 21 | 100 | 1.6 | 0.0 | 0.00 | 0.00 | 0.00 | 60 | 1019.0 |
| 20260905073359 | 21 | 100 | 1.6 | 0.0 | 0.00 | 0.00 | 0.00 | 60 | 1019.0 |
| 20260905071851 | 18 | 3.2 | 0.0 | 0.00 | 0.00 | 0.00 | 64 | 1019.0 | |
| 20260905070351 | 18 | 3.2 | 0.0 | 0.00 | 0.00 | 0.00 | 64 | 1019.0 | |
| 20260905064851 | 17 | 4.8 | 0.0 | 0.00 | 0.00 | 0.00 | 73 | 1019.0 | |
| 20260905063351 | 17 | 4.8 | 0.0 | 0.00 | 0.00 | 0.00 | 73 | 1019.0 | |
| 20260905061851 | 16 | 1.6 | 0.0 | 0.00 | 0.00 | 0.00 | 72 | 1019.0 | |
| 20260905060352 | 16 | 1.6 | 0.0 | 0.00 | 0.00 | 0.00 | 72 | 1019.0 | |
| 20260905054851 | 15 | 60 | 1.6 | 0.0 | 0.00 | 0.00 | 0.00 | 77 | 1019.0 |
| 20260905053351 | 15 | 60 | 1.6 | 0.0 | 0.00 | 0.00 | 0.00 | 77 | 1019.0 |
| 20260905051850 | 12 | 0 | 0.0 | 0.0 | 0.00 | 0.00 | 0.00 | 88 | 1019.0 |
| 20260905050351 | 12 | 0 | 0.0 | 0.0 | 0.00 | 0.00 | 0.00 | 88 | 1019.0 |
| 20260905044851 | 11 | 0 | 0.0 | 0.0 | 0.00 | 0.00 | 0.00 | 94 | 1019.0 |
| 20260905043350 | 11 | 0 | 0.0 | 0.0 | 0.00 | 0.00 | 0.00 | 94 | 1019.0 |
| 20260905041851 | 10 | 0 | 0.0 | 0.0 | 0.00 | 0.00 | 0.00 | 100 | 1019.0 |
| 20260905040350 | 10 | 0 | 0.0 | 0.0 | 0.00 | 0.00 | 0.00 | 100 | 1019.0 |